sensor_id;sensor_type;location;lat;lon;timestamp;temperature;humidity
40289;DHT22;28991;52.028;5.526;2023-04-06T00:01:30;18.80;35.90
40289;DHT22;28991;52.028;5.526;2023-04-06T00:03:56;18.80;35.90
40289;DHT22;28991;52.028;5.526;2023-04-06T00:06:21;18.70;35.80
40289;DHT22;28991;52.028;5.526;2023-04-06T00:08:47;18.70;35.80
40289;DHT22;28991;52.028;5.526;2023-04-06T00:11:12;18.70;35.80
40289;DHT22;28991;52.028;5.526;2023-04-06T00:13:38;18.70;35.90
40289;DHT22;28991;52.028;5.526;2023-04-06T00:16:04;18.70;35.90
40289;DHT22;28991;52.028;5.526;2023-04-06T00:18:31;18.70;35.90
40289;DHT22;28991;52.028;5.526;2023-04-06T00:20:56;18.70;35.90
40289;DHT22;28991;52.028;5.526;2023-04-06T00:23:22;18.70;35.90
40289;DHT22;28991;52.028;5.526;2023-04-06T00:25:47;18.70;36.00
40289;DHT22;28991;52.028;5.526;2023-04-06T00:28:13;18.80;36.00
40289;DHT22;28991;52.028;5.526;2023-04-06T00:30:40;18.80;36.10
40289;DHT22;28991;52.028;5.526;2023-04-06T00:33:06;18.70;36.10
40289;DHT22;28991;52.028;5.526;2023-04-06T00:35:31;18.60;36.10
40289;DHT22;28991;52.028;5.526;2023-04-06T00:37:57;18.70;36.20
40289;DHT22;28991;52.028;5.526;2023-04-06T00:40:22;18.80;36.20
40289;DHT22;28991;52.028;5.526;2023-04-06T00:42:48;18.70;36.20
40289;DHT22;28991;52.028;5.526;2023-04-06T00:45:14;18.70;36.20
40289;DHT22;28991;52.028;5.526;2023-04-06T00:47:39;18.60;36.20
40289;DHT22;28991;52.028;5.526;2023-04-06T00:50:05;19.50;36.70
40289;DHT22;28991;52.028;5.526;2023-04-06T00:52:31;18.70;36.20
40289;DHT22;28991;52.028;5.526;2023-04-06T00:54:57;18.60;36.20
40289;DHT22;28991;52.028;5.526;2023-04-06T00:57:22;18.50;36.10
40289;DHT22;28991;52.028;5.526;2023-04-06T00:59:48;18.80;36.30
40289;DHT22;28991;52.028;5.526;2023-04-06T01:02:13;18.80;36.40
40289;DHT22;28991;52.028;5.526;2023-04-06T01:04:40;18.60;36.30
40289;DHT22;28991;52.028;5.526;2023-04-06T01:07:05;18.60;36.30
40289;DHT22;28991;52.028;5.526;2023-04-06T01:09:31;18.70;36.40
40289;DHT22;28991;52.028;5.526;2023-04-06T01:11:57;18.70;36.40
40289;DHT22;28991;52.028;5.526;2023-04-06T01:14:24;18.60;36.40
40289;DHT22;28991;52.028;5.526;2023-04-06T01:16:51;18.50;36.30
40289;DHT22;28991;52.028;5.526;2023-04-06T01:19:16;18.60;36.40
40289;DHT22;28991;52.028;5.526;2023-04-06T01:21:42;18.50;36.30
40289;DHT22;28991;52.028;5.526;2023-04-06T01:24:08;18.60;36.50
40289;DHT22;28991;52.028;5.526;2023-04-06T01:26:34;18.60;36.50
40289;DHT22;28991;52.028;5.526;2023-04-06T01:29:01;18.60;36.50
40289;DHT22;28991;52.028;5.526;2023-04-06T01:31:27;18.60;36.50
40289;DHT22;28991;52.028;5.526;2023-04-06T01:33:53;18.60;36.60
40289;DHT22;28991;52.028;5.526;2023-04-06T01:36:19;18.70;36.60
40289;DHT22;28991;52.028;5.526;2023-04-06T01:38:44;18.60;36.60
40289;DHT22;28991;52.028;5.526;2023-04-06T01:41:10;18.70;36.60
40289;DHT22;28991;52.028;5.526;2023-04-06T01:43:36;18.70;36.60
40289;DHT22;28991;52.028;5.526;2023-04-06T01:46:01;18.60;36.60
40289;DHT22;28991;52.028;5.526;2023-04-06T01:48:27;18.50;36.50
40289;DHT22;28991;52.028;5.526;2023-04-06T01:50:53;18.60;36.60
40289;DHT22;28991;52.028;5.526;2023-04-06T01:53:19;18.70;36.70
40289;DHT22;28991;52.028;5.526;2023-04-06T01:55:45;18.60;36.70
40289;DHT22;28991;52.028;5.526;2023-04-06T01:58:11;18.90;36.90
40289;DHT22;28991;52.028;5.526;2023-04-06T02:00:36;19.00;36.90
40289;DHT22;28991;52.028;5.526;2023-04-06T02:03:02;18.40;36.60
40289;DHT22;28991;52.028;5.526;2023-04-06T02:05:29;18.50;36.60
40289;DHT22;28991;52.028;5.526;2023-04-06T02:07:55;18.60;36.70
40289;DHT22;28991;52.028;5.526;2023-04-06T02:10:21;18.50;36.70
40289;DHT22;28991;52.028;5.526;2023-04-06T02:12:47;18.50;36.70
40289;DHT22;28991;52.028;5.526;2023-04-06T02:15:13;18.80;36.90
40289;DHT22;28991;52.028;5.526;2023-04-06T02:17:39;18.60;36.80
40289;DHT22;28991;52.028;5.526;2023-04-06T02:20:05;18.60;36.80
40289;DHT22;28991;52.028;5.526;2023-04-06T02:22:31;18.60;36.80
40289;DHT22;28991;52.028;5.526;2023-04-06T02:24:56;18.50;36.70
40289;DHT22;28991;52.028;5.526;2023-04-06T02:27:22;18.90;36.90
40289;DHT22;28991;52.028;5.526;2023-04-06T02:29:48;18.50;36.80
40289;DHT22;28991;52.028;5.526;2023-04-06T02:32:13;18.50;36.80
40289;DHT22;28991;52.028;5.526;2023-04-06T02:34:39;18.60;36.90
40289;DHT22;28991;52.028;5.526;2023-04-06T02:37:05;18.70;37.00
40289;DHT22;28991;52.028;5.526;2023-04-06T02:39:30;18.50;36.80
40289;DHT22;28991;52.028;5.526;2023-04-06T02:41:56;18.60;36.90
40289;DHT22;28991;52.028;5.526;2023-04-06T02:44:22;18.60;36.80
40289;DHT22;28991;52.028;5.526;2023-04-06T02:46:48;18.50;36.80
40289;DHT22;28991;52.028;5.526;2023-04-06T02:49:13;18.40;36.70
40289;DHT22;28991;52.028;5.526;2023-04-06T02:51:39;18.50;36.80
40289;DHT22;28991;52.028;5.526;2023-04-06T02:54:04;18.40;36.80
40289;DHT22;28991;52.028;5.526;2023-04-06T02:56:30;18.50;36.80
40289;DHT22;28991;52.028;5.526;2023-04-06T02:58:55;18.60;36.90
40289;DHT22;28991;52.028;5.526;2023-04-06T03:01:21;18.60;36.90
40289;DHT22;28991;52.028;5.526;2023-04-06T03:03:47;18.50;36.80
40289;DHT22;28991;52.028;5.526;2023-04-06T03:06:12;18.50;36.90
40289;DHT22;28991;52.028;5.526;2023-04-06T03:08:38;18.50;36.90
40289;DHT22;28991;52.028;5.526;2023-04-06T03:11:03;18.50;36.90
40289;DHT22;28991;52.028;5.526;2023-04-06T03:13:29;18.50;36.90
40289;DHT22;28991;52.028;5.526;2023-04-06T03:15:54;18.50;36.90
40289;DHT22;28991;52.028;5.526;2023-04-06T03:18:24;18.40;36.90
40289;DHT22;28991;52.028;5.526;2023-04-06T03:20:50;18.60;37.00
40289;DHT22;28991;52.028;5.526;2023-04-06T03:23:16;18.50;36.90
40289;DHT22;28991;52.028;5.526;2023-04-06T03:25:41;18.50;36.90
40289;DHT22;28991;52.028;5.526;2023-04-06T03:28:07;18.50;36.90
40289;DHT22;28991;52.028;5.526;2023-04-06T03:30:35;18.80;37.10
40289;DHT22;28991;52.028;5.526;2023-04-06T03:33:00;18.50;37.00
40289;DHT22;28991;52.028;5.526;2023-04-06T03:35:26;18.60;37.10
40289;DHT22;28991;52.028;5.526;2023-04-06T03:37:52;18.60;37.00
40289;DHT22;28991;52.028;5.526;2023-04-06T03:40:17;18.60;37.00
40289;DHT22;28991;52.028;5.526;2023-04-06T03:42:43;18.60;37.00
40289;DHT22;28991;52.028;5.526;2023-04-06T03:45:09;18.50;37.00
40289;DHT22;28991;52.028;5.526;2023-04-06T03:47:34;18.50;37.60
40289;DHT22;28991;52.028;5.526;2023-04-06T03:50:00;18.50;37.00
40289;DHT22;28991;52.028;5.526;2023-04-06T03:52:26;18.50;37.00
40289;DHT22;28991;52.028;5.526;2023-04-06T03:54:52;18.60;37.10
40289;DHT22;28991;52.028;5.526;2023-04-06T03:57:17;18.60;37.70
40289;DHT22;28991;52.028;5.526;2023-04-06T03:59:43;18.50;37.00
40289;DHT22;28991;52.028;5.526;2023-04-06T04:02:08;18.50;37.10
40289;DHT22;28991;52.028;5.526;2023-04-06T04:04:34;18.50;37.20
40289;DHT22;28991;52.028;5.526;2023-04-06T04:06:59;18.70;37.20
40289;DHT22;28991;52.028;5.526;2023-04-06T04:09:25;18.50;37.10
40289;DHT22;28991;52.028;5.526;2023-04-06T04:11:50;18.50;37.10
40289;DHT22;28991;52.028;5.526;2023-04-06T04:14:16;18.50;37.10
40289;DHT22;28991;52.028;5.526;2023-04-06T04:16:41;18.50;37.10
40289;DHT22;28991;52.028;5.526;2023-04-06T04:19:07;18.50;37.10
40289;DHT22;28991;52.028;5.526;2023-04-06T04:21:33;18.50;37.10
40289;DHT22;28991;52.028;5.526;2023-04-06T04:23:58;18.50;37.20
40289;DHT22;28991;52.028;5.526;2023-04-06T04:26:24;18.50;37.20
40289;DHT22;28991;52.028;5.526;2023-04-06T04:28:50;18.60;37.70
40289;DHT22;28991;52.028;5.526;2023-04-06T04:31:15;18.40;37.10
40289;DHT22;28991;52.028;5.526;2023-04-06T04:33:43;18.50;37.10
40289;DHT22;28991;52.028;5.526;2023-04-06T04:36:09;18.50;37.20
40289;DHT22;28991;52.028;5.526;2023-04-06T04:38:35;18.50;37.20
40289;DHT22;28991;52.028;5.526;2023-04-06T04:41:01;18.40;37.10
40289;DHT22;28991;52.028;5.526;2023-04-06T04:43:26;18.80;37.40
40289;DHT22;28991;52.028;5.526;2023-04-06T04:45:52;18.50;37.20
40289;DHT22;28991;52.028;5.526;2023-04-06T04:48:17;18.50;37.20
40289;DHT22;28991;52.028;5.526;2023-04-06T04:50:43;18.40;37.20
40289;DHT22;28991;52.028;5.526;2023-04-06T04:53:08;18.60;37.30
40289;DHT22;28991;52.028;5.526;2023-04-06T04:55:35;18.50;37.30
40289;DHT22;28991;52.028;5.526;2023-04-06T04:58:01;19.10;37.60
40289;DHT22;28991;52.028;5.526;2023-04-06T05:00:27;18.60;37.30
40289;DHT22;28991;52.028;5.526;2023-04-06T05:02:53;18.50;37.20
40289;DHT22;28991;52.028;5.526;2023-04-06T05:05:19;18.60;37.30
40289;DHT22;28991;52.028;5.526;2023-04-06T05:07:44;18.50;37.40
40289;DHT22;28991;52.028;5.526;2023-04-06T05:10:10;18.40;35.80
40289;DHT22;28991;52.028;5.526;2023-04-06T05:12:36;18.50;34.10
40289;DHT22;28991;52.028;5.526;2023-04-06T05:15:02;18.60;33.70
40289;DHT22;28991;52.028;5.526;2023-04-06T05:17:28;18.60;33.20
40289;DHT22;28991;52.028;5.526;2023-04-06T05:19:53;19.20;33.20
40289;DHT22;28991;52.028;5.526;2023-04-06T05:22:19;18.90;33.20
40289;DHT22;28991;52.028;5.526;2023-04-06T05:24:45;18.90;32.70
40289;DHT22;28991;52.028;5.526;2023-04-06T05:27:11;18.90;32.20
40289;DHT22;28991;52.028;5.526;2023-04-06T05:29:36;19.60;33.00
40289;DHT22;28991;52.028;5.526;2023-04-06T05:32:02;19.20;32.60
40289;DHT22;28991;52.028;5.526;2023-04-06T05:34:27;19.70;32.60
40289;DHT22;28991;52.028;5.526;2023-04-06T05:36:53;19.30;32.40
40289;DHT22;28991;52.028;5.526;2023-04-06T05:39:18;19.60;32.40
40289;DHT22;28991;52.028;5.526;2023-04-06T05:41:44;19.60;31.80
40289;DHT22;28991;52.028;5.526;2023-04-06T05:44:09;19.30;31.50
40289;DHT22;28991;52.028;5.526;2023-04-06T05:46:35;19.40;31.40
40289;DHT22;28991;52.028;5.526;2023-04-06T05:49:01;19.50;31.10
40289;DHT22;28991;52.028;5.526;2023-04-06T05:51:26;19.40;30.80
40289;DHT22;28991;52.028;5.526;2023-04-06T05:53:52;19.40;30.70
40289;DHT22;28991;52.028;5.526;2023-04-06T05:56:18;19.40;30.70
40289;DHT22;28991;52.028;5.526;2023-04-06T05:58:43;19.40;30.30
40289;DHT22;28991;52.028;5.526;2023-04-06T06:01:09;19.40;30.70
40289;DHT22;28991;52.028;5.526;2023-04-06T06:03:35;20.10;30.50
40289;DHT22;28991;52.028;5.526;2023-04-06T06:06:04;19.40;30.10
40289;DHT22;28991;52.028;5.526;2023-04-06T06:08:30;19.40;30.20
40289;DHT22;28991;52.028;5.526;2023-04-06T06:10:56;19.50;30.30
40289;DHT22;28991;52.028;5.526;2023-04-06T06:13:23;19.50;30.10
40289;DHT22;28991;52.028;5.526;2023-04-06T06:15:49;19.60;30.10
40289;DHT22;28991;52.028;5.526;2023-04-06T06:18:15;19.50;30.00
40289;DHT22;28991;52.028;5.526;2023-04-06T06:20:40;19.60;30.40
40289;DHT22;28991;52.028;5.526;2023-04-06T06:23:06;19.60;30.20
40289;DHT22;28991;52.028;5.526;2023-04-06T06:25:32;19.60;30.10
40289;DHT22;28991;52.028;5.526;2023-04-06T06:27:58;19.60;30.10
40289;DHT22;28991;52.028;5.526;2023-04-06T06:30:24;19.70;30.40
40289;DHT22;28991;52.028;5.526;2023-04-06T06:32:50;19.70;30.30
40289;DHT22;28991;52.028;5.526;2023-04-06T06:35:16;19.70;30.30
40289;DHT22;28991;52.028;5.526;2023-04-06T06:37:42;19.70;30.40
40289;DHT22;28991;52.028;5.526;2023-04-06T06:40:09;19.70;30.30
40289;DHT22;28991;52.028;5.526;2023-04-06T06:42:35;19.80;30.40
40289;DHT22;28991;52.028;5.526;2023-04-06T06:45:01;19.70;30.30
40289;DHT22;28991;52.028;5.526;2023-04-06T06:47:26;19.80;30.40
40289;DHT22;28991;52.028;5.526;2023-04-06T06:49:52;19.80;30.40
40289;DHT22;28991;52.028;5.526;2023-04-06T06:52:17;19.80;30.40
40289;DHT22;28991;52.028;5.526;2023-04-06T06:54:44;19.80;30.40
40289;DHT22;28991;52.028;5.526;2023-04-06T06:57:09;19.80;30.30
40289;DHT22;28991;52.028;5.526;2023-04-06T06:59:35;19.80;30.20
40289;DHT22;28991;52.028;5.526;2023-04-06T07:02:00;19.90;30.50
40289;DHT22;28991;52.028;5.526;2023-04-06T07:04:26;20.20;30.60
40289;DHT22;28991;52.028;5.526;2023-04-06T07:06:51;20.30;31.00
40289;DHT22;28991;52.028;5.526;2023-04-06T07:09:18;20.00;30.70
40289;DHT22;28991;52.028;5.526;2023-04-06T07:11:43;19.90;30.50
40289;DHT22;28991;52.028;5.526;2023-04-06T07:14:09;20.10;30.70
40289;DHT22;28991;52.028;5.526;2023-04-06T07:16:35;20.10;30.90
40289;DHT22;28991;52.028;5.526;2023-04-06T07:19:00;20.00;30.90
40289;DHT22;28991;52.028;5.526;2023-04-06T07:21:26;20.10;30.80
40289;DHT22;28991;52.028;5.526;2023-04-06T07:23:51;20.10;30.50
40289;DHT22;28991;52.028;5.526;2023-04-06T07:26:17;20.10;30.70
40289;DHT22;28991;52.028;5.526;2023-04-06T07:28:43;20.20;30.70
40289;DHT22;28991;52.028;5.526;2023-04-06T07:31:09;20.20;30.30
40289;DHT22;28991;52.028;5.526;2023-04-06T07:33:34;20.10;30.00
40289;DHT22;28991;52.028;5.526;2023-04-06T07:36:00;20.10;30.60
40289;DHT22;28991;52.028;5.526;2023-04-06T07:38:25;20.20;30.70
40289;DHT22;28991;52.028;5.526;2023-04-06T07:40:51;20.20;30.60
40289;DHT22;28991;52.028;5.526;2023-04-06T07:43:17;20.20;30.60
40289;DHT22;28991;52.028;5.526;2023-04-06T07:45:42;20.30;30.60
40289;DHT22;28991;52.028;5.526;2023-04-06T07:48:08;20.30;30.80
40289;DHT22;28991;52.028;5.526;2023-04-06T07:50:34;20.30;30.60
40289;DHT22;28991;52.028;5.526;2023-04-06T07:52:59;20.30;30.90
40289;DHT22;28991;52.028;5.526;2023-04-06T07:55:25;20.30;30.50
40289;DHT22;28991;52.028;5.526;2023-04-06T07:57:51;20.30;31.20
40289;DHT22;28991;52.028;5.526;2023-04-06T08:00:17;20.30;31.30
40289;DHT22;28991;52.028;5.526;2023-04-06T08:02:42;20.30;31.90
40289;DHT22;28991;52.028;5.526;2023-04-06T08:05:08;20.30;31.60
40289;DHT22;28991;52.028;5.526;2023-04-06T08:07:34;20.40;30.90
40289;DHT22;28991;52.028;5.526;2023-04-06T08:10:01;20.30;31.50
40289;DHT22;28991;52.028;5.526;2023-04-06T08:12:27;20.30;31.70
40289;DHT22;28991;52.028;5.526;2023-04-06T08:14:52;20.40;31.50
40289;DHT22;28991;52.028;5.526;2023-04-06T08:17:18;20.40;31.80
40289;DHT22;28991;52.028;5.526;2023-04-06T08:19:44;20.40;32.30
40289;DHT22;28991;52.028;5.526;2023-04-06T08:22:10;20.40;31.30
40289;DHT22;28991;52.028;5.526;2023-04-06T08:24:36;20.40;30.80
40289;DHT22;28991;52.028;5.526;2023-04-06T08:27:01;20.40;31.00
40289;DHT22;28991;52.028;5.526;2023-04-06T08:29:27;20.40;31.70
40289;DHT22;28991;52.028;5.526;2023-04-06T08:31:53;20.40;31.70
40289;DHT22;28991;52.028;5.526;2023-04-06T08:34:18;20.40;31.90
40289;DHT22;28991;52.028;5.526;2023-04-06T08:36:44;20.40;32.30
40289;DHT22;28991;52.028;5.526;2023-04-06T08:39:11;20.40;32.20
40289;DHT22;28991;52.028;5.526;2023-04-06T08:41:36;20.40;32.00
40289;DHT22;28991;52.028;5.526;2023-04-06T08:44:02;20.40;32.30
40289;DHT22;28991;52.028;5.526;2023-04-06T08:46:29;20.40;31.80
40289;DHT22;28991;52.028;5.526;2023-04-06T08:48:59;20.40;31.60
40289;DHT22;28991;52.028;5.526;2023-04-06T08:51:26;21.00;32.00
40289;DHT22;28991;52.028;5.526;2023-04-06T08:53:56;20.50;31.70
40289;DHT22;28991;52.028;5.526;2023-04-06T08:56:23;20.50;32.00
40289;DHT22;28991;52.028;5.526;2023-04-06T08:58:49;21.00;32.30
40289;DHT22;28991;52.028;5.526;2023-04-06T09:01:20;20.30;32.30
40289;DHT22;28991;52.028;5.526;2023-04-06T09:03:46;20.70;32.70
40289;DHT22;28991;52.028;5.526;2023-04-06T09:06:13;20.40;32.30
40289;DHT22;28991;52.028;5.526;2023-04-06T09:08:40;20.40;32.10
40289;DHT22;28991;52.028;5.526;2023-04-06T09:11:06;20.50;32.30
40289;DHT22;28991;52.028;5.526;2023-04-06T09:13:43;20.50;32.50
40289;DHT22;28991;52.028;5.526;2023-04-06T09:16:09;20.50;32.50
40289;DHT22;28991;52.028;5.526;2023-04-06T09:18:35;20.40;32.40
40289;DHT22;28991;52.028;5.526;2023-04-06T09:21:03;20.20;32.40
40289;DHT22;28991;52.028;5.526;2023-04-06T09:23:28;20.40;32.70
40289;DHT22;28991;52.028;5.526;2023-04-06T09:28:57;20.50;32.70
40289;DHT22;28991;52.028;5.526;2023-04-06T09:31:27;20.50;32.70
40289;DHT22;28991;52.028;5.526;2023-04-06T09:33:53;20.50;32.60
40289;DHT22;28991;52.028;5.526;2023-04-06T09:36:20;20.60;32.90
40289;DHT22;28991;52.028;5.526;2023-04-06T09:38:57;20.50;32.70
40289;DHT22;28991;52.028;5.526;2023-04-06T09:41:27;20.60;33.10
40289;DHT22;28991;52.028;5.526;2023-04-06T09:44:09;20.60;33.60
40289;DHT22;28991;52.028;5.526;2023-04-06T09:46:37;20.60;33.10
40289;DHT22;28991;52.028;5.526;2023-04-06T09:49:04;20.60;33.40
40289;DHT22;28991;52.028;5.526;2023-04-06T09:51:41;20.60;33.30
40289;DHT22;28991;52.028;5.526;2023-04-06T09:54:07;20.60;33.50
40289;DHT22;28991;52.028;5.526;2023-04-06T09:56:47;20.60;33.30
40289;DHT22;28991;52.028;5.526;2023-04-06T09:59:50;20.60;33.40
40289;DHT22;28991;52.028;5.526;2023-04-06T10:02:32;20.60;33.10
40289;DHT22;28991;52.028;5.526;2023-04-06T10:07:54;20.50;33.10
40289;DHT22;28991;52.028;5.526;2023-04-06T10:10:21;20.40;32.90
40289;DHT22;28991;52.028;5.526;2023-04-06T10:12:48;20.50;33.60
40289;DHT22;28991;52.028;5.526;2023-04-06T10:15:14;20.40;32.90
40289;DHT22;28991;52.028;5.526;2023-04-06T10:17:40;20.50;32.90
40289;DHT22;28991;52.028;5.526;2023-04-06T10:20:12;20.60;33.00
40289;DHT22;28991;52.028;5.526;2023-04-06T10:25:31;20.60;32.70
40289;DHT22;28991;52.028;5.526;2023-04-06T10:28:05;20.70;32.90
40289;DHT22;28991;52.028;5.526;2023-04-06T10:30:37;20.70;32.90
40289;DHT22;28991;52.028;5.526;2023-04-06T10:33:33;20.70;32.90
40289;DHT22;28991;52.028;5.526;2023-04-06T10:36:09;20.80;33.10
40289;DHT22;28991;52.028;5.526;2023-04-06T10:38:37;20.70;33.30
40289;DHT22;28991;52.028;5.526;2023-04-06T10:41:08;20.70;33.70
40289;DHT22;28991;52.028;5.526;2023-04-06T10:43:36;20.70;33.70
40289;DHT22;28991;52.028;5.526;2023-04-06T10:46:02;20.70;34.40
40289;DHT22;28991;52.028;5.526;2023-04-06T10:48:45;20.80;34.40
40289;DHT22;28991;52.028;5.526;2023-04-06T10:51:16;20.70;34.60
40289;DHT22;28991;52.028;5.526;2023-04-06T10:53:45;20.70;34.80
40289;DHT22;28991;52.028;5.526;2023-04-06T10:56:16;20.70;36.10
40289;DHT22;28991;52.028;5.526;2023-04-06T11:01:11;20.70;35.80
40289;DHT22;28991;52.028;5.526;2023-04-06T11:03:47;20.50;36.00
40289;DHT22;28991;52.028;5.526;2023-04-06T11:06:24;22.10;36.90
40289;DHT22;28991;52.028;5.526;2023-04-06T11:08:51;20.70;36.20
40289;DHT22;28991;52.028;5.526;2023-04-06T11:11:21;20.70;37.90
40289;DHT22;28991;52.028;5.526;2023-04-06T11:13:58;21.20;37.80
40289;DHT22;28991;52.028;5.526;2023-04-06T11:16:30;20.70;37.80
40289;DHT22;28991;52.028;5.526;2023-04-06T11:19:02;20.70;38.60
40289;DHT22;28991;52.028;5.526;2023-04-06T11:21:43;20.70;38.20
40289;DHT22;28991;52.028;5.526;2023-04-06T11:26:40;20.70;38.80
40289;DHT22;28991;52.028;5.526;2023-04-06T11:29:06;20.70;38.50
40289;DHT22;28991;52.028;5.526;2023-04-06T11:31:47;20.80;38.70
40289;DHT22;28991;52.028;5.526;2023-04-06T11:34:17;20.80;38.60
40289;DHT22;28991;52.028;5.526;2023-04-06T11:36:45;20.80;39.00
40289;DHT22;28991;52.028;5.526;2023-04-06T11:39:13;20.80;38.80
40289;DHT22;28991;52.028;5.526;2023-04-06T11:41:39;20.90;38.90
40289;DHT22;28991;52.028;5.526;2023-04-06T11:44:05;21.00;38.90
40289;DHT22;28991;52.028;5.526;2023-04-06T11:46:31;20.80;39.10
40289;DHT22;28991;52.028;5.526;2023-04-06T11:49:00;20.80;39.10
40289;DHT22;28991;52.028;5.526;2023-04-06T11:51:26;20.90;39.50
40289;DHT22;28991;52.028;5.526;2023-04-06T11:53:52;20.90;39.60
40289;DHT22;28991;52.028;5.526;2023-04-06T11:56:28;21.40;39.70
40289;DHT22;28991;52.028;5.526;2023-04-06T11:58:55;20.70;39.60
40289;DHT22;28991;52.028;5.526;2023-04-06T12:01:22;20.90;40.00
40289;DHT22;28991;52.028;5.526;2023-04-06T12:03:47;20.80;39.80
40289;DHT22;28991;52.028;5.526;2023-04-06T12:06:13;20.90;39.90
40289;DHT22;28991;52.028;5.526;2023-04-06T12:08:39;21.20;39.80
40289;DHT22;28991;52.028;5.526;2023-04-06T12:11:06;20.80;39.50
40289;DHT22;28991;52.028;5.526;2023-04-06T12:13:34;20.80;39.50
40289;DHT22;28991;52.028;5.526;2023-04-06T12:16:00;20.80;39.70
40289;DHT22;28991;52.028;5.526;2023-04-06T12:18:25;20.90;39.90
40289;DHT22;28991;52.028;5.526;2023-04-06T12:20:52;20.80;40.00
40289;DHT22;28991;52.028;5.526;2023-04-06T12:23:19;20.80;41.30
40289;DHT22;28991;52.028;5.526;2023-04-06T12:25:44;20.80;41.00
40289;DHT22;28991;52.028;5.526;2023-04-06T12:28:10;20.80;41.10
40289;DHT22;28991;52.028;5.526;2023-04-06T12:30:35;20.80;40.90
40289;DHT22;28991;52.028;5.526;2023-04-06T12:33:01;20.80;40.80
40289;DHT22;28991;52.028;5.526;2023-04-06T12:35:27;20.70;40.60
40289;DHT22;28991;52.028;5.526;2023-04-06T12:37:52;20.70;40.80
40289;DHT22;28991;52.028;5.526;2023-04-06T12:40:18;21.20;40.90
40289;DHT22;28991;52.028;5.526;2023-04-06T12:42:44;20.70;40.40
40289;DHT22;28991;52.028;5.526;2023-04-06T12:45:11;20.70;40.30
40289;DHT22;28991;52.028;5.526;2023-04-06T12:47:37;20.80;40.30
40289;DHT22;28991;52.028;5.526;2023-04-06T12:50:03;20.80;40.10
40289;DHT22;28991;52.028;5.526;2023-04-06T12:52:29;20.80;39.90
40289;DHT22;28991;52.028;5.526;2023-04-06T12:54:56;20.80;40.00
40289;DHT22;28991;52.028;5.526;2023-04-06T12:57:23;20.80;39.80
40289;DHT22;28991;52.028;5.526;2023-04-06T12:59:49;20.70;39.70
40289;DHT22;28991;52.028;5.526;2023-04-06T13:02:15;20.80;40.00
40289;DHT22;28991;52.028;5.526;2023-04-06T13:04:41;21.10;40.20
40289;DHT22;28991;52.028;5.526;2023-04-06T13:07:07;20.80;39.90
40289;DHT22;28991;52.028;5.526;2023-04-06T13:09:32;20.70;39.80
40289;DHT22;28991;52.028;5.526;2023-04-06T13:11:58;20.80;39.90
40289;DHT22;28991;52.028;5.526;2023-04-06T13:14:23;20.80;40.00
40289;DHT22;28991;52.028;5.526;2023-04-06T13:16:49;20.80;39.90
40289;DHT22;28991;52.028;5.526;2023-04-06T13:19:14;20.80;39.90
40289;DHT22;28991;52.028;5.526;2023-04-06T13:21:40;20.80;39.90
40289;DHT22;28991;52.028;5.526;2023-04-06T13:24:06;21.00;39.90
40289;DHT22;28991;52.028;5.526;2023-04-06T13:26:32;20.80;39.90
40289;DHT22;28991;52.028;5.526;2023-04-06T13:28:59;20.80;40.10
40289;DHT22;28991;52.028;5.526;2023-04-06T13:31:26;20.80;40.10
40289;DHT22;28991;52.028;5.526;2023-04-06T13:33:52;21.10;40.30
40289;DHT22;28991;52.028;5.526;2023-04-06T13:36:18;20.70;40.10
40289;DHT22;28991;52.028;5.526;2023-04-06T13:38:43;20.80;40.10
40289;DHT22;28991;52.028;5.526;2023-04-06T13:41:09;20.80;40.20
40289;DHT22;28991;52.028;5.526;2023-04-06T13:43:34;20.80;40.30
40289;DHT22;28991;52.028;5.526;2023-04-06T13:46:00;20.80;40.20
40289;DHT22;28991;52.028;5.526;2023-04-06T13:48:26;20.70;40.80
40289;DHT22;28991;52.028;5.526;2023-04-06T13:50:52;20.70;40.20
40289;DHT22;28991;52.028;5.526;2023-04-06T13:53:18;20.70;40.30
40289;DHT22;28991;52.028;5.526;2023-04-06T13:55:43;20.70;40.40
40289;DHT22;28991;52.028;5.526;2023-04-06T13:58:09;20.70;40.40
40289;DHT22;28991;52.028;5.526;2023-04-06T14:00:35;20.60;40.40
40289;DHT22;28991;52.028;5.526;2023-04-06T14:03:00;20.60;40.50
40289;DHT22;28991;52.028;5.526;2023-04-06T14:05:30;20.60;40.50
40289;DHT22;28991;52.028;5.526;2023-04-06T14:07:55;20.40;40.50
40289;DHT22;28991;52.028;5.526;2023-04-06T14:10:21;20.90;40.70
40289;DHT22;28991;52.028;5.526;2023-04-06T14:12:49;20.60;40.70
40289;DHT22;28991;52.028;5.526;2023-04-06T14:15:15;20.50;40.60
40289;DHT22;28991;52.028;5.526;2023-04-06T14:17:40;20.80;40.70
40289;DHT22;28991;52.028;5.526;2023-04-06T14:20:07;20.60;40.90
40289;DHT22;28991;52.028;5.526;2023-04-06T14:22:32;20.50;40.70
40289;DHT22;28991;52.028;5.526;2023-04-06T14:24:58;20.60;40.80
40289;DHT22;28991;52.028;5.526;2023-04-06T14:27:24;20.60;41.00
40289;DHT22;28991;52.028;5.526;2023-04-06T14:29:50;20.60;40.90
40289;DHT22;28991;52.028;5.526;2023-04-06T14:32:16;20.60;40.90
40289;DHT22;28991;52.028;5.526;2023-04-06T14:34:42;20.50;40.90
40289;DHT22;28991;52.028;5.526;2023-04-06T14:37:07;20.40;40.90
40289;DHT22;28991;52.028;5.526;2023-04-06T14:39:33;20.60;41.30
40289;DHT22;28991;52.028;5.526;2023-04-06T14:41:59;20.30;41.30
40289;DHT22;28991;52.028;5.526;2023-04-06T14:44:24;20.20;41.50
40289;DHT22;28991;52.028;5.526;2023-04-06T14:46:50;20.50;41.80
40289;DHT22;28991;52.028;5.526;2023-04-06T14:49:16;20.00;41.60
40289;DHT22;28991;52.028;5.526;2023-04-06T14:51:41;20.10;41.70
40289;DHT22;28991;52.028;5.526;2023-04-06T14:54:07;20.10;42.60
40289;DHT22;28991;52.028;5.526;2023-04-06T14:56:33;20.00;42.40
40289;DHT22;28991;52.028;5.526;2023-04-06T14:58:59;20.10;42.60
40289;DHT22;28991;52.028;5.526;2023-04-06T15:01:27;19.90;43.00
40289;DHT22;28991;52.028;5.526;2023-04-06T15:03:52;20.20;43.30
40289;DHT22;28991;52.028;5.526;2023-04-06T15:06:18;19.80;42.80
40289;DHT22;28991;52.028;5.526;2023-04-06T15:08:46;19.80;42.90
40289;DHT22;28991;52.028;5.526;2023-04-06T15:11:12;19.60;42.80
40289;DHT22;28991;52.028;5.526;2023-04-06T15:13:38;19.70;42.80
40289;DHT22;28991;52.028;5.526;2023-04-06T15:16:05;19.70;42.90
40289;DHT22;28991;52.028;5.526;2023-04-06T15:18:31;19.60;42.90
40289;DHT22;28991;52.028;5.526;2023-04-06T15:20:57;19.60;42.90
40289;DHT22;28991;52.028;5.526;2023-04-06T15:23:22;19.60;42.90
40289;DHT22;28991;52.028;5.526;2023-04-06T15:25:48;19.60;42.90
40289;DHT22;28991;52.028;5.526;2023-04-06T15:28:14;19.60;42.70
40289;DHT22;28991;52.028;5.526;2023-04-06T15:30:40;19.60;42.90
40289;DHT22;28991;52.028;5.526;2023-04-06T15:33:07;19.50;42.80
40289;DHT22;28991;52.028;5.526;2023-04-06T15:35:33;19.50;42.90
40289;DHT22;28991;52.028;5.526;2023-04-06T15:38:07;19.50;43.00
40289;DHT22;28991;52.028;5.526;2023-04-06T15:40:33;19.50;43.10